Passat — V7FM3 — position and weather

sailwx.info

Track history (hours):
 
Tides and Currents Weather Stations Pressure Air Temp Water Temp Dewpoint Dewpoint Depression Visibility Wind Speed Wind Dir Waves Ship Positions

Passat

Last reported at 2017-Oct-03 21:44 UTC. Time now 2017-Oct-18 11:13 UTC.
Position N 14°11' W 060°36'.
Warning: this ship's position is 14 days out of date.

Length 226 m; draft 12 m.

Type: Ship. MMSI: 538005616.

Date/timePositionNaut miles runAvg speedWind from/ knotsBaromVisibWave heightAir tempDewpointWater temp
2017-Oct-03 21:44N 14°11' W 060°36'612.9
2017-Oct-03 21:18N 14°12' W 060°42'412.8
2017-Oct-03 21:00N 14°13' W 060°46'612.7
2017-Oct-03 20:30N 14°15' W 060°52'612.5
2017-Oct-03 20:00N 14°16' W 060°58'612.3
2017-Oct-03 19:30N 14°18' W 061°04'612.4
2017-Oct-03 19:00N 14°19' W 061°10'713.5
2017-Oct-03 18:30N 14°21' W 061°17'  
2017-Sep-26 16:06N 29°21' W 094°44'113.7
2017-Sep-26 16:00N 29°21' W 094°46'712.0
2017-Sep-26 15:25N 29°26' W 094°50'511.8
2017-Sep-26 15:00N 29°31' W 094°53'611.3
2017-Sep-26 14:30N 29°35' W 094°56'4 8.3
2017-Sep-26 14:00N 29°39' W 094°58'5 9.0
2017-Sep-26 13:30N 29°43' W 095°01'4 7.0
2017-Sep-26 13:00N 29°45' W 095°04'  
Track history (hours):
 
Tides and Currents Weather Stations Pressure Air Temp Water Temp Dewpoint Dewpoint Depression Visibility Wind Speed Wind Dir Waves Ship Positions

Passat

Last reported at 2017-Oct-03 21:44 UTC. Time now 2017-Oct-18 11:13 UTC.
Position N 14°11' W 060°36'.
Warning: this ship's position is 14 days out of date.

Length 226 m; draft 12 m.

Type: Ship. MMSI: 538005616.

Date/timePositionNaut miles runAvg speedWind from/ knotsBaromVisibWave heightAir tempDewpointWater temp
2017-Oct-03 21:44N 14°11' W 060°36'612.9
2017-Oct-03 21:18N 14°12' W 060°42'412.8
2017-Oct-03 21:00N 14°13' W 060°46'612.7
2017-Oct-03 20:30N 14°15' W 060°52'612.5
2017-Oct-03 20:00N 14°16' W 060°58'612.3
2017-Oct-03 19:30N 14°18' W 061°04'612.4
2017-Oct-03 19:00N 14°19' W 061°10'713.5
2017-Oct-03 18:30N 14°21' W 061°17'  
2017-Sep-26 16:06N 29°21' W 094°44'113.7
2017-Sep-26 16:00N 29°21' W 094°46'712.0
2017-Sep-26 15:25N 29°26' W 094°50'511.8
2017-Sep-26 15:00N 29°31' W 094°53'611.3
2017-Sep-26 14:30N 29°35' W 094°56'4 8.3
2017-Sep-26 14:00N 29°39' W 094°58'5 9.0
2017-Sep-26 13:30N 29°43' W 095°01'4 7.0
2017-Sep-26 13:00N 29°45' W 095°04'  

Dump ship's entire track history